createdAt,value
2022-12-25T00:00:42.751Z,13.51
2022-12-25T00:01:44.951Z,13.52
2022-12-25T00:02:47.207Z,13.52
2022-12-25T00:03:49.507Z,13.52
2022-12-25T00:04:51.709Z,13.52
2022-12-25T00:05:53.840Z,13.52
2022-12-25T00:06:56.260Z,13.52
2022-12-25T00:07:58.943Z,13.53
2022-12-25T00:09:01.110Z,13.52
2022-12-25T00:10:02.823Z,13.52
2022-12-25T00:11:06.462Z,13.52
2022-12-25T00:12:09.099Z,13.52
2022-12-25T00:28:17.707Z,13.50
2022-12-25T00:29:19.865Z,13.50
2022-12-25T00:30:21.587Z,13.50
2022-12-25T00:31:23.832Z,13.51
2022-12-25T00:32:25.708Z,13.51
2022-12-25T00:33:27.872Z,13.49
2022-12-25T00:34:29.990Z,13.50
2022-12-25T00:35:32.265Z,13.51
2022-12-25T00:36:41.219Z,13.50
2022-12-25T00:37:43.408Z,13.47
2022-12-25T00:38:45.278Z,13.47
2022-12-25T00:39:48.179Z,13.46
2022-12-25T00:40:49.900Z,13.44
2022-12-25T00:42:10.734Z,13.45
2022-12-25T00:43:13.132Z,13.44
2022-12-25T00:54:20.123Z,13.41
2022-12-25T01:02:55.043Z,13.44
2022-12-25T01:03:57.376Z,13.45
2022-12-25T01:04:59.635Z,13.46
2022-12-25T01:06:02.419Z,13.45
2022-12-25T01:07:04.217Z,13.46
2022-12-25T01:08:06.504Z,13.47
2022-12-25T01:09:28.453Z,13.47
2022-12-25T01:10:30.158Z,13.48
2022-12-25T01:11:32.380Z,13.48
2022-12-25T01:12:34.797Z,13.49
2022-12-25T01:13:37.674Z,13.49
2022-12-25T01:14:41.131Z,13.49
2022-12-25T01:15:43.318Z,13.50
2022-12-25T01:16:45.454Z,13.49
2022-12-25T01:17:47.785Z,13.49
2022-12-25T01:18:49.921Z,13.50
2022-12-25T01:19:52.089Z,13.49
2022-12-25T01:20:54.304Z,13.51
2022-12-25T01:21:56.344Z,13.50
2022-12-25T01:22:58.095Z,13.50
2022-12-25T01:23:59.694Z,13.52
2022-12-25T01:25:01.899Z,13.53
2022-12-25T01:26:06.786Z,13.53
2022-12-25T01:27:08.931Z,13.53
2022-12-25T01:28:12.730Z,13.54
2022-12-25T01:29:14.434Z,13.54
2022-12-25T01:30:16.547Z,13.53
2022-12-25T01:31:19.556Z,13.53
2022-12-25T01:32:21.952Z,13.53
2022-12-25T01:33:23.700Z,13.53
2022-12-25T01:34:25.601Z,13.53
2022-12-25T01:35:27.808Z,13.52
2022-12-25T01:36:30.040Z,13.53
2022-12-25T01:37:32.901Z,13.53
2022-12-25T01:38:35.213Z,13.52
2022-12-25T01:39:37.697Z,13.53
2022-12-25T01:40:39.836Z,13.52
2022-12-25T01:41:41.989Z,13.54
2022-12-25T01:42:44.020Z,13.52
2022-12-25T01:44:05.582Z,13.53
2022-12-25T01:45:26.152Z,13.52
2022-12-25T02:15:51.075Z,13.34
2022-12-25T02:16:56.700Z,13.31
2022-12-25T02:18:00.911Z,13.24
2022-12-25T02:19:05.108Z,13.25
2022-12-25T02:20:25.615Z,13.21
2022-12-25T02:21:30.180Z,13.19
2022-12-25T02:22:39.130Z,13.17
2022-12-25T02:23:59.948Z,13.17
2022-12-25T02:25:48.537Z,13.07
2022-12-25T02:26:50.219Z,13.03
2022-12-25T02:27:51.948Z,13.03
2022-12-25T02:28:53.568Z,13.05
2022-12-25T02:30:05.264Z,13.07
2022-12-25T02:31:22.809Z,13.07
2022-12-25T02:32:30.409Z,12.94
2022-12-25T02:33:53.003Z,12.91
2022-12-25T02:34:57.724Z,12.81
2022-12-25T02:35:59.890Z,12.75
2022-12-25T02:37:01.896Z,12.71
2022-12-25T02:38:24.484Z,12.66
2022-12-25T02:40:00.630Z,12.68
2022-12-25T02:41:05.313Z,12.73
2022-12-25T02:42:08.548Z,12.72
2022-12-25T02:43:36.105Z,12.73
2022-12-25T02:44:57.537Z,12.68
2022-12-25T02:46:18.845Z,12.71
2022-12-25T02:47:39.851Z,12.72
2022-12-25T02:49:01.125Z,12.65
2022-12-25T02:50:21.943Z,12.70
2022-12-25T02:51:43.883Z,12.72
2022-12-25T02:53:04.709Z,12.75
2022-12-25T02:54:26.807Z,12.70
2022-12-25T02:55:52.104Z,12.75
2022-12-25T02:57:12.593Z,12.78
2022-12-25T02:58:36.208Z,12.73
2022-12-25T02:59:57.002Z,12.71
2022-12-25T03:01:22.032Z,12.66
2022-12-25T03:02:42.819Z,12.63
2022-12-25T03:04:03.584Z,12.57
2022-12-25T03:05:26.526Z,12.57
2022-12-25T03:06:46.153Z,12.57
2022-12-25T03:07:47.893Z,12.50
2022-12-25T03:08:50.748Z,12.43
2022-12-25T03:10:13.592Z,12.38
2022-12-25T03:11:34.108Z,12.37
2022-12-25T03:12:56.032Z,12.36
2022-12-25T03:14:23.058Z,12.39
2022-12-25T03:15:44.577Z,12.39
2022-12-25T03:16:53.802Z,12.37
2022-12-25T03:17:56.165Z,12.39
2022-12-25T03:18:57.835Z,12.37
2022-12-25T03:20:18.552Z,12.34
2022-12-25T03:21:38.860Z,12.32
2022-12-25T03:22:59.666Z,12.34
2022-12-25T03:24:24.222Z,12.30
2022-12-25T03:25:46.033Z,12.29
2022-12-25T03:26:57.483Z,12.26
2022-12-25T03:27:59.333Z,12.26
2022-12-25T03:29:02.671Z,12.29
2022-12-25T03:30:24.326Z,12.36
2022-12-25T03:31:28.240Z,12.35
2022-12-25T03:32:50.435Z,12.38
2022-12-25T03:34:23.670Z,12.41
2022-12-25T03:35:34.320Z,12.39
2022-12-25T03:37:13.455Z,12.41
2022-12-25T03:38:52.260Z,12.46
2022-12-25T03:39:56.715Z,12.33
2022-12-25T03:41:16.659Z,12.33
2022-12-25T03:42:37.663Z,12.32
2022-12-25T03:44:05.347Z,12.34
2022-12-25T03:45:34.377Z,12.37
2022-12-25T03:46:55.252Z,12.34
2022-12-25T03:48:29.194Z,12.31
2022-12-25T03:49:51.001Z,12.36
2022-12-25T03:51:12.905Z,12.32
2022-12-25T03:52:33.621Z,12.35
2022-12-25T03:53:59.216Z,12.37
2022-12-25T03:55:21.018Z,12.38
2022-12-25T03:56:41.751Z,12.34
2022-12-25T03:58:03.473Z,12.24
2022-12-25T03:59:24.488Z,12.20
2022-12-25T04:00:45.254Z,12.14
2022-12-25T04:02:05.855Z,12.12
2022-12-25T04:03:48.482Z,12.15
2022-12-25T04:05:08.586Z,12.17
2022-12-25T04:06:29.227Z,12.23
2022-12-25T04:07:50.033Z,12.27
2022-12-25T04:09:10.969Z,12.31
2022-12-25T04:10:31.582Z,12.34
2022-12-25T04:11:54.979Z,12.37
2022-12-25T04:13:19.254Z,12.33
2022-12-25T04:14:39.616Z,12.34
2022-12-25T04:16:01.572Z,12.25
2022-12-25T04:17:21.876Z,12.36
2022-12-25T04:18:42.473Z,12.42
2022-12-25T04:20:03.365Z,12.46
2022-12-25T04:21:23.531Z,12.49
2022-12-25T04:22:43.837Z,12.53
2022-12-25T04:24:04.638Z,12.56
2022-12-25T04:25:25.500Z,12.60
2022-12-25T04:26:48.997Z,12.62
2022-12-25T04:28:09.909Z,12.64
2022-12-25T04:29:30.385Z,12.66
2022-12-25T04:30:51.260Z,12.68
2022-12-25T04:32:12.061Z,12.70
2022-12-25T04:33:32.341Z,12.71
2022-12-25T04:34:53.151Z,12.73
2022-12-25T04:36:10.544Z,12.71
2022-12-25T04:37:12.746Z,12.71
2022-12-25T04:38:14.488Z,12.72
2022-12-25T04:39:16.852Z,12.71
2022-12-25T04:47:55.677Z,12.73
2022-12-25T04:48:57.385Z,12.75
2022-12-25T04:49:59.048Z,12.72
2022-12-25T04:51:20.536Z,12.64
2022-12-25T04:52:22.816Z,12.61
2022-12-25T04:53:24.488Z,12.49
2022-12-25T04:54:26.689Z,12.48
2022-12-25T04:55:28.431Z,12.47
2022-12-25T04:56:30.537Z,12.48
2022-12-25T05:27:52.087Z,12.55
2022-12-25T05:28:57.093Z,12.60
2022-12-25T05:47:37.211Z,12.81
2022-12-25T05:48:39.081Z,12.83
2022-12-25T05:49:40.826Z,12.85
2022-12-25T05:50:42.560Z,12.86
2022-12-25T05:51:44.749Z,12.89
2022-12-25T05:52:46.944Z,12.88
2022-12-25T05:53:48.807Z,12.88
2022-12-25T05:59:54.085Z,12.94
2022-12-25T06:00:56.789Z,12.95
2022-12-25T06:01:58.594Z,12.96
2022-12-25T06:03:00.717Z,12.97
2022-12-25T06:04:07.074Z,12.97
2022-12-25T06:05:13.795Z,12.99
2022-12-25T06:06:15.698Z,12.99
2022-12-25T06:07:17.412Z,13.00
2022-12-25T06:08:19.291Z,13.01
2022-12-25T06:09:21.517Z,13.01
2022-12-25T06:10:23.469Z,13.02
2022-12-25T06:11:25.354Z,13.01
2022-12-25T06:12:27.526Z,13.01
2022-12-25T06:13:29.667Z,12.99
2022-12-25T06:14:31.928Z,13.00
2022-12-25T06:29:49.297Z,12.92
2022-12-25T06:30:51.477Z,12.90
2022-12-25T06:31:57.545Z,12.91
2022-12-25T06:33:01.987Z,12.93
2022-12-25T06:34:03.697Z,12.90
2022-12-25T06:35:05.678Z,12.95
2022-12-25T06:36:08.368Z,12.95
2022-12-25T06:37:10.546Z,12.97
2022-12-25T06:38:12.728Z,12.92
2022-12-25T06:39:15.053Z,12.90
2022-12-25T06:57:55.818Z,12.91
2022-12-25T06:58:58.423Z,12.90
2022-12-25T07:00:00.512Z,12.92
2022-12-25T07:01:06.574Z,12.90
2022-12-25T07:02:08.722Z,12.93
2022-12-25T07:03:11.432Z,12.91
2022-12-25T07:04:38.172Z,12.90
2022-12-25T07:05:40.370Z,12.89
2022-12-25T07:06:42.056Z,12.89
2022-12-25T07:07:44.203Z,12.92
2022-12-25T07:08:46.523Z,12.95
2022-12-25T07:09:48.603Z,12.97
2022-12-25T07:10:50.761Z,12.96
2022-12-25T07:11:52.965Z,13.00
2022-12-25T07:12:55.098Z,13.01
2022-12-25T07:13:57.071Z,13.00
2022-12-25T07:14:59.650Z,13.00
2022-12-25T07:16:01.912Z,12.95
2022-12-25T07:17:04.888Z,12.95
2022-12-25T07:18:07.183Z,12.94
2022-12-25T07:19:10.550Z,12.96
2022-12-25T07:20:12.479Z,12.98
2022-12-25T07:21:18.233Z,13.00
2022-12-25T07:22:20.401Z,12.93
2022-12-25T07:23:22.552Z,12.85
2022-12-25T07:24:24.171Z,12.86
2022-12-25T07:25:33.586Z,12.89
2022-12-25T07:26:39.197Z,12.93
2022-12-25T07:27:41.748Z,12.95
2022-12-25T07:28:45.408Z,12.95
2022-12-25T07:29:47.136Z,12.98
2022-12-25T07:30:48.881Z,13.00
2022-12-25T07:31:51.108Z,13.02
2022-12-25T07:32:52.879Z,13.03
2022-12-25T07:33:54.772Z,13.04
2022-12-25T07:34:56.485Z,13.06
2022-12-25T07:35:58.699Z,13.08
2022-12-25T07:37:00.390Z,13.09
2022-12-25T07:38:02.526Z,13.09
2022-12-25T07:39:04.225Z,13.12
2022-12-25T07:40:06.597Z,13.12
2022-12-25T07:52:29.884Z,13.19
2022-12-25T08:08:51.406Z,13.26
2022-12-25T08:09:54.398Z,13.26
2022-12-25T08:10:56.131Z,13.28
2022-12-25T08:11:58.294Z,13.28
2022-12-25T08:13:00.423Z,13.27
2022-12-25T08:14:02.688Z,13.28
2022-12-25T08:15:05.602Z,13.30
2022-12-25T08:16:08.906Z,13.25
2022-12-25T08:17:10.635Z,13.21
2022-12-25T08:18:13.080Z,13.23
2022-12-25T08:19:15.550Z,13.22
2022-12-25T08:20:17.915Z,13.20
2022-12-25T08:21:20.091Z,13.22
2022-12-25T08:22:21.792Z,13.20
2022-12-25T08:23:23.464Z,13.21
2022-12-25T08:24:25.192Z,13.15
2022-12-25T08:25:26.797Z,13.11
2022-12-25T08:26:29.023Z,13.03
2022-12-25T08:27:31.212Z,12.88
2022-12-25T08:28:34.501Z,12.85
2022-12-25T08:29:36.647Z,12.82
2022-12-25T08:30:39.452Z,12.72
2022-12-25T08:31:46.122Z,12.65
2022-12-25T08:32:49.145Z,12.66
2022-12-25T08:33:51.734Z,12.65
2022-12-25T08:34:54.060Z,12.67
2022-12-25T08:35:56.731Z,12.57
2022-12-25T08:36:58.909Z,12.46
2022-12-25T08:38:01.931Z,12.43
2022-12-25T08:39:04.769Z,12.38
2022-12-25T08:40:08.895Z,12.32
2022-12-25T08:41:11.063Z,12.37
2022-12-25T08:42:13.267Z,12.35
2022-12-25T08:43:15.164Z,12.29
2022-12-25T08:44:17.868Z,12.29
2022-12-25T08:45:19.561Z,12.32
2022-12-25T08:46:21.904Z,12.36
2022-12-25T08:47:23.821Z,12.42
2022-12-25T08:48:26.129Z,12.48
2022-12-25T08:49:29.318Z,12.49
2022-12-25T09:42:56.347Z,12.50
2022-12-25T10:08:02.320Z,13.49
2022-12-25T10:09:17.602Z,13.54
2022-12-25T10:10:31.559Z,13.56
2022-12-25T10:11:33.362Z,13.53
2022-12-25T10:12:39.612Z,13.44
2022-12-25T10:14:04.552Z,13.55
2022-12-25T10:15:09.031Z,13.47
2022-12-25T10:16:15.027Z,13.45
2022-12-25T10:27:58.692Z,13.65
2022-12-25T10:29:01.667Z,13.69
2022-12-25T10:30:06.672Z,13.69
2022-12-25T10:31:23.153Z,13.61
2022-12-25T10:32:24.965Z,13.55
2022-12-25T10:39:48.736Z,13.65
2022-12-25T12:03:07.217Z,14.55
2022-12-25T13:47:14.014Z,15.58
2022-12-25T13:48:18.429Z,15.62
2022-12-25T13:49:21.027Z,15.58
2022-12-25T13:50:26.935Z,15.64
2022-12-25T13:51:30.647Z,15.67
2022-12-25T15:09:32.081Z,15.37
2022-12-25T15:11:57.699Z,15.44
2022-12-25T15:18:15.710Z,15.40
2022-12-25T15:19:25.753Z,15.44
2022-12-25T15:20:52.406Z,15.21
2022-12-25T15:21:54.474Z,15.26
2022-12-25T15:23:18.555Z,15.29
2022-12-25T15:24:19.320Z,15.28
2022-12-25T15:25:24.179Z,15.29
2022-12-25T15:26:26.182Z,15.27
2022-12-25T16:38:06.798Z,14.86
2022-12-25T16:39:09.466Z,14.84
2022-12-25T16:40:13.411Z,14.87
2022-12-25T18:07:19.170Z,13.77
2022-12-25T18:12:11.451Z,13.60
2022-12-25T18:13:13.622Z,13.54
2022-12-25T18:23:06.079Z,13.59
2022-12-25T19:05:09.292Z,14.22
2022-12-25T19:06:17.114Z,14.26
2022-12-25T19:07:20.087Z,14.27
2022-12-25T19:08:21.780Z,14.29
2022-12-25T19:09:23.612Z,14.32
2022-12-25T19:10:26.632Z,14.34
2022-12-25T19:11:29.009Z,14.32
2022-12-25T19:12:31.037Z,14.32
2022-12-25T19:13:34.559Z,14.30
2022-12-25T19:14:47.580Z,14.31
2022-12-25T19:15:50.471Z,14.32
2022-12-25T19:16:54.417Z,14.31
2022-12-25T19:17:56.232Z,14.36
2022-12-25T19:18:58.550Z,14.37
2022-12-25T19:20:00.413Z,14.40
2022-12-25T19:51:29.032Z,14.70
2022-12-25T19:52:31.701Z,14.72
2022-12-25T19:53:34.836Z,14.73
2022-12-25T19:54:36.973Z,14.69
2022-12-25T19:55:39.195Z,14.69
2022-12-25T19:56:40.935Z,14.68
2022-12-25T20:26:48.619Z,13.93
2022-12-25T20:27:51.553Z,13.98
2022-12-25T20:28:54.875Z,14.01
2022-12-25T20:29:57.509Z,13.99
2022-12-25T20:43:45.178Z,14.17
2022-12-25T21:36:12.621Z,14.09
2022-12-25T22:53:47.205Z,14.14
2022-12-25T22:54:49.513Z,14.12
2022-12-25T22:55:53.805Z,14.07
2022-12-25T22:56:55.838Z,14.12
2022-12-25T22:57:58.182Z,14.17
2022-12-25T22:59:01.697Z,14.18
2022-12-25T23:00:04.092Z,14.10
2022-12-25T23:27:24.513Z,13.76
2022-12-25T23:51:31.233Z,13.92
2022-12-25T23:52:38.953Z,13.91
